sensor_id;sensor_type;location;lat;lon;timestamp;pressure;altitude;pressure_sealevel;temperature;humidity
12963;BME280;6546;49.882;8.666;2022-12-26T00:01:34;99635.41;;;12.18;100.00
12963;BME280;6546;49.882;8.666;2022-12-26T00:04:01;99641.38;;;12.25;100.00
12963;BME280;6546;49.882;8.666;2022-12-26T00:06:30;99641.28;;;12.34;100.00
12963;BME280;6546;49.882;8.666;2022-12-26T00:08:58;99638.66;;;12.40;100.00
12963;BME280;6546;49.882;8.666;2022-12-26T00:11:26;99636.94;;;12.39;100.00
12963;BME280;6546;49.882;8.666;2022-12-26T00:13:53;99622.22;;;12.38;100.00
12963;BME280;6546;49.882;8.666;2022-12-26T00:16:20;99631.66;;;12.47;100.00
12963;BME280;6546;49.882;8.666;2022-12-26T00:18:47;99632.59;;;12.41;100.00
12963;BME280;6546;49.882;8.666;2022-12-26T00:21:15;99622.22;;;12.38;100.00
12963;BME280;6546;49.882;8.666;2022-12-26T00:23:43;99624.00;;;12.33;100.00
12963;BME280;6546;49.882;8.666;2022-12-26T00:26:11;99631.84;;;12.29;100.00
12963;BME280;6546;49.882;8.666;2022-12-26T00:28:39;99643.00;;;12.40;100.00
12963;BME280;6546;49.882;8.666;2022-12-26T00:31:06;99638.59;;;12.46;100.00
12963;BME280;6546;49.882;8.666;2022-12-26T00:33:34;99633.38;;;12.49;100.00
12963;BME280;6546;49.882;8.666;2022-12-26T00:36:01;99626.53;;;12.41;100.00
12963;BME280;6546;49.882;8.666;2022-12-26T00:38:28;99622.28;;;12.35;100.00
12963;BME280;6546;49.882;8.666;2022-12-26T00:40:56;99629.19;;;12.36;100.00
12963;BME280;6546;49.882;8.666;2022-12-26T00:43:23;99624.00;;;12.33;100.00
12963;BME280;6546;49.882;8.666;2022-12-26T00:45:49;99624.94;;;12.28;100.00
12963;BME280;6546;49.882;8.666;2022-12-26T00:48:16;99622.31;;;12.32;100.00
12963;BME280;6546;49.882;8.666;2022-12-26T00:50:43;99623.97;;;12.38;100.00
12963;BME280;6546;49.882;8.666;2022-12-26T00:53:09;99616.25;;;12.35;100.00
12963;BME280;6546;49.882;8.666;2022-12-26T00:55:36;99630.03;;;12.37;100.00
12963;BME280;6546;49.882;8.666;2022-12-26T00:58:04;99621.44;;;12.33;100.00
12963;BME280;6546;49.882;8.666;2022-12-26T01:00:31;99627.47;;;12.34;100.00
12963;BME280;6546;49.882;8.666;2022-12-26T01:02:57;99636.03;;;12.42;100.00
12963;BME280;6546;49.882;8.666;2022-12-26T01:05:24;99629.19;;;12.36;100.00
12963;BME280;6546;49.882;8.666;2022-12-26T01:07:51;99636.84;;;12.47;100.00
12963;BME280;6546;49.882;8.666;2022-12-26T01:10:17;99636.06;;;12.40;100.00
12963;BME280;6546;49.882;8.666;2022-12-26T01:12:44;99640.28;;;12.51;100.00
12963;BME280;6546;49.882;8.666;2022-12-26T01:15:12;99624.81;;;12.41;100.00
12963;BME280;6546;49.882;8.666;2022-12-26T01:17:38;99632.56;;;12.44;100.00
12963;BME280;6546;49.882;8.666;2022-12-26T01:20:06;99629.13;;;12.42;100.00
12963;BME280;6546;49.882;8.666;2022-12-26T01:22:32;99635.97;;;12.49;100.00
12963;BME280;6546;49.882;8.666;2022-12-26T01:24:59;99638.56;;;12.49;100.00
12963;BME280;6546;49.882;8.666;2022-12-26T01:27:25;99644.66;;;12.45;100.00
12963;BME280;6546;49.882;8.666;2022-12-26T01:29:52;99636.00;;;12.46;100.00
12963;BME280;6546;49.882;8.666;2022-12-26T01:32:20;99648.13;;;12.47;100.00
12963;BME280;6546;49.882;8.666;2022-12-26T01:34:46;99639.44;;;12.48;100.00
12963;BME280;6546;49.882;8.666;2022-12-26T01:37:14;99648.19;;;12.40;100.00
12963;BME280;6546;49.882;8.666;2022-12-26T01:39:41;99645.47;;;12.51;100.00
12963;BME280;6546;49.882;8.666;2022-12-26T01:42:11;99636.84;;;12.48;100.00
12963;BME280;6546;49.882;8.666;2022-12-26T01:45:00;99640.28;;;12.51;100.00
12963;BME280;6546;49.882;8.666;2022-12-26T01:47:38;99648.06;;;12.51;100.00
12963;BME280;6546;49.882;8.666;2022-12-26T01:50:13;99651.50;;;12.56;100.00
12963;BME280;6546;49.882;8.666;2022-12-26T01:52:44;99656.69;;;12.56;100.00
12963;BME280;6546;49.882;8.666;2022-12-26T01:55:15;99665.28;;;12.61;100.00
12963;BME280;6546;49.882;8.666;2022-12-26T01:57:45;99671.28;;;12.69;100.00
12963;BME280;6546;49.882;8.666;2022-12-26T02:00:14;99667.81;;;12.68;100.00
12963;BME280;6546;49.882;8.666;2022-12-26T02:02:43;99659.16;;;12.69;100.00
12963;BME280;6546;49.882;8.666;2022-12-26T02:05:28;99661.78;;;12.65;100.00
12963;BME280;6546;49.882;8.666;2022-12-26T02:08:04;99663.44;;;12.72;100.00
12963;BME280;6546;49.882;8.666;2022-12-26T02:10:34;99666.88;;;12.74;100.00
12963;BME280;6546;49.882;8.666;2022-12-26T02:13:03;99670.38;;;12.73;100.00
12963;BME280;6546;49.882;8.666;2022-12-26T02:15:30;99672.97;;;12.71;100.00
12963;BME280;6546;49.882;8.666;2022-12-26T02:17:58;99682.56;;;12.62;100.00
12963;BME280;6546;49.882;8.666;2022-12-26T02:20:26;99682.56;;;12.65;100.00
12963;BME280;6546;49.882;8.666;2022-12-26T02:32:13;99688.78;;;12.44;100.00
12963;BME280;6546;49.882;8.666;2022-12-26T02:34:51;99677.56;;;12.40;100.00
12963;BME280;6546;49.882;8.666;2022-12-26T02:37:37;99679.34;;;12.35;100.00
12963;BME280;6546;49.882;8.666;2022-12-26T02:40:31;99682.78;;;12.40;100.00
12963;BME280;6546;49.882;8.666;2022-12-26T02:43:05;99694.84;;;12.44;100.00
12963;BME280;6546;49.882;8.666;2022-12-26T02:45:41;99699.13;;;12.48;100.00
12963;BME280;6546;49.882;8.666;2022-12-26T02:48:34;99700.81;;;12.56;100.00
12963;BME280;6546;49.882;8.666;2022-12-26T02:51:11;99700.81;;;12.51;100.00
12963;BME280;6546;49.882;8.666;2022-12-26T02:54:17;99698.25;;;12.46;100.00
12963;BME280;6546;49.882;8.666;2022-12-26T02:57:18;99675.81;;;12.42;100.00
12963;BME280;6546;49.882;8.666;2022-12-26T03:00:06;99693.16;;;12.37;100.00
12963;BME280;6546;49.882;8.666;2022-12-26T03:02:54;99700.88;;;12.45;100.00
12963;BME280;6546;49.882;8.666;2022-12-26T03:05:43;99676.66;;;12.46;100.00
12963;BME280;6546;49.882;8.666;2022-12-26T03:08:31;99690.53;;;12.43;100.00
12963;BME280;6546;49.882;8.666;2022-12-26T03:11:16;99677.59;;;12.37;100.00
12963;BME280;6546;49.882;8.666;2022-12-26T03:14:06;99678.50;;;12.35;100.00
12963;BME280;6546;49.882;8.666;2022-12-26T03:16:36;99696.66;;;12.30;100.00
12963;BME280;6546;49.882;8.666;2022-12-26T03:19:22;99690.59;;;12.34;100.00
12963;BME280;6546;49.882;8.666;2022-12-26T03:21:53;99680.28;;;12.27;100.00
12963;BME280;6546;49.882;8.666;2022-12-26T03:24:21;99672.50;;;12.27;100.00
12963;BME280;6546;49.882;8.666;2022-12-26T03:26:51;99663.84;;;12.28;100.00
12963;BME280;6546;49.882;8.666;2022-12-26T03:29:20;99681.16;;;12.24;100.00
12963;BME280;6546;49.882;8.666;2022-12-26T03:32:07;99671.63;;;12.31;100.00
12963;BME280;6546;49.882;8.666;2022-12-26T03:34:40;99669.91;;;12.25;100.00
12963;BME280;6546;49.882;8.666;2022-12-26T03:37:26;99693.28;;;12.22;100.00
12963;BME280;6546;49.882;8.666;2022-12-26T03:40:03;99688.94;;;12.27;100.00
12963;BME280;6546;49.882;8.666;2022-12-26T03:42:54;99689.75;;;12.32;100.00
12963;BME280;6546;49.882;8.666;2022-12-26T03:45:45;99668.19;;;12.26;100.00
12963;BME280;6546;49.882;8.666;2022-12-26T03:48:32;99674.28;;;12.20;100.00
12963;BME280;6546;49.882;8.666;2022-12-26T03:51:21;99697.66;;;12.15;100.00
12963;BME280;6546;49.882;8.666;2022-12-26T03:54:11;99675.19;;;12.13;100.00
12963;BME280;6546;49.882;8.666;2022-12-26T03:56:59;99667.41;;;12.13;100.00
12963;BME280;6546;49.882;8.666;2022-12-26T03:59:50;99679.53;;;12.11;100.00
12963;BME280;6546;49.882;8.666;2022-12-26T04:02:36;99688.16;;;12.13;100.00
12963;BME280;6546;49.882;8.666;2022-12-26T04:05:21;99676.91;;;12.15;100.00
12963;BME280;6546;49.882;8.666;2022-12-26T04:08:10;99680.34;;;12.17;100.00
12963;BME280;6546;49.882;8.666;2022-12-26T04:10:58;99681.25;;;12.15;100.00
12963;BME280;6546;49.882;8.666;2022-12-26T04:13:49;99674.28;;;12.17;100.00
12963;BME280;6546;49.882;8.666;2022-12-26T04:16:38;99674.28;;;12.17;100.00
12963;BME280;6546;49.882;8.666;2022-12-26T04:22:22;99682.97;;;12.13;100.00
12963;BME280;6546;49.882;8.666;2022-12-26T04:25:12;99676.13;;;12.06;100.00
12963;BME280;6546;49.882;8.666;2022-12-26T04:27:58;99690.00;;;11.98;100.00
12963;BME280;6546;49.882;8.666;2022-12-26T04:30:48;99674.44;;;11.98;100.00
12963;BME280;6546;49.882;8.666;2022-12-26T04:33:36;99685.72;;;11.91;100.00
12963;BME280;6546;49.882;8.666;2022-12-26T04:36:29;99686.59;;;11.89;100.00
12963;BME280;6546;49.882;8.666;2022-12-26T04:39:16;99696.94;;;11.93;100.00
12963;BME280;6546;49.882;8.666;2022-12-26T04:42:01;99694.31;;;11.98;100.00
12963;BME280;6546;49.882;8.666;2022-12-26T04:44:48;99702.09;;;11.96;100.00
12963;BME280;6546;49.882;8.666;2022-12-26T04:47:15;99695.19;;;11.98;100.00
12963;BME280;6546;49.882;8.666;2022-12-26T04:49:44;99692.59;;;11.92;100.00
12963;BME280;6546;49.882;8.666;2022-12-26T04:52:29;99697.72;;;12.06;100.00
12963;BME280;6546;49.882;8.666;2022-12-26T04:55:19;99707.28;;;11.96;100.00
12963;BME280;6546;49.882;8.666;2022-12-26T04:57:45;99711.56;;;12.01;100.00
12963;BME280;6546;49.882;8.666;2022-12-26T05:00:14;99703.84;;;11.94;100.00
12963;BME280;6546;49.882;8.666;2022-12-26T05:02:41;99693.47;;;11.94;100.00
12963;BME280;6546;49.882;8.666;2022-12-26T05:05:25;99691.69;;;12.03;100.00
12963;BME280;6546;49.882;8.666;2022-12-26T05:08:19;99707.25;;;11.99;100.00
12963;BME280;6546;49.882;8.666;2022-12-26T05:11:05;99694.31;;;12.01;100.00
12963;BME280;6546;49.882;8.666;2022-12-26T05:13:32;99692.63;;;11.94;100.00
12963;BME280;6546;49.882;8.666;2022-12-26T05:16:00;99696.91;;;11.98;100.00
12963;BME280;6546;49.882;8.666;2022-12-26T05:18:44;99694.31;;;11.96;100.00
12963;BME280;6546;49.882;8.666;2022-12-26T05:21:28;99691.72;;;11.99;100.00
12963;BME280;6546;49.882;8.666;2022-12-26T05:24:12;99697.72;;;12.06;100.00
12963;BME280;6546;49.882;8.666;2022-12-26T05:26:56;99705.47;;;12.09;100.00
12963;BME280;6546;49.882;8.666;2022-12-26T05:29:40;99697.72;;;12.05;100.00
12963;BME280;6546;49.882;8.666;2022-12-26T05:32:08;99704.66;;;12.06;100.00
12963;BME280;6546;49.882;8.666;2022-12-26T05:34:34;99705.47;;;12.09;100.00
12963;BME280;6546;49.882;8.666;2022-12-26T05:37:00;99708.06;;;12.14;100.00
12963;BME280;6546;49.882;8.666;2022-12-26T05:39:27;99708.88;;;12.16;100.00
12963;BME280;6546;49.882;8.666;2022-12-26T05:41:53;99707.19;;;12.12;100.00
12963;BME280;6546;49.882;8.666;2022-12-26T05:44:20;99700.28;;;12.09;100.00
12963;BME280;6546;49.882;8.666;2022-12-26T05:46:46;99704.56;;;12.18;100.00
12963;BME280;6546;49.882;8.666;2022-12-26T05:49:15;99691.59;;;12.18;100.00
12963;BME280;6546;49.882;8.666;2022-12-26T05:51:41;99689.91;;;12.14;100.00
12963;BME280;6546;49.882;8.666;2022-12-26T05:54:08;99685.53;;;12.16;100.00
12963;BME280;6546;49.882;8.666;2022-12-26T05:56:34;99694.19;;;12.18;100.00
12963;BME280;6546;49.882;8.666;2022-12-26T05:59:01;99689.91;;;12.11;100.00
12963;BME280;6546;49.882;8.666;2022-12-26T06:01:28;99687.25;;;12.20;100.00
12963;BME280;6546;49.882;8.666;2022-12-26T06:03:56;99706.25;;;12.20;100.00
12963;BME280;6546;49.882;8.666;2022-12-26T06:06:26;99700.22;;;12.17;100.00
12963;BME280;6546;49.882;8.666;2022-12-26T06:08:55;99699.41;;;12.15;100.00
12963;BME280;6546;49.882;8.666;2022-12-26T06:11:22;99703.69;;;12.22;100.00
12963;BME280;6546;49.882;8.666;2022-12-26T06:13:50;99708.84;;;12.22;100.00
12963;BME280;6546;49.882;8.666;2022-12-26T06:16:18;99719.25;;;12.19;100.00
12963;BME280;6546;49.882;8.666;2022-12-26T06:18:45;99716.63;;;12.20;100.00
12963;BME280;6546;49.882;8.666;2022-12-26T06:21:14;99715.78;;;12.17;100.00
12963;BME280;6546;49.882;8.666;2022-12-26T06:23:42;99713.16;;;12.24;100.00
12963;BME280;6546;49.882;8.666;2022-12-26T06:26:09;99716.63;;;12.23;100.00
12963;BME280;6546;49.882;8.666;2022-12-26T06:28:37;99723.47;;;12.32;100.00
12963;BME280;6546;49.882;8.666;2022-12-26T06:31:07;99717.41;;;12.33;100.00
12963;BME280;6546;49.882;8.666;2022-12-26T06:33:34;99712.22;;;12.30;100.00
12963;BME280;6546;49.882;8.666;2022-12-26T06:36:03;99719.16;;;12.30;100.00
12963;BME280;6546;49.882;8.666;2022-12-26T06:38:29;99718.31;;;12.28;100.00
12963;BME280;6546;49.882;8.666;2022-12-26T06:40:57;99724.41;;;12.22;100.00
12963;BME280;6546;49.882;8.666;2022-12-26T06:43:24;99718.31;;;12.26;100.00
12963;BME280;6546;49.882;8.666;2022-12-26T06:45:53;99716.63;;;12.20;100.00
12963;BME280;6546;49.882;8.666;2022-12-26T06:48:20;99712.31;;;12.21;100.00
12963;BME280;6546;49.882;8.666;2022-12-26T06:50:47;99722.72;;;12.13;100.00
12963;BME280;6546;49.882;8.666;2022-12-26T06:53:13;99722.78;;;12.06;100.00
12963;BME280;6546;49.882;8.666;2022-12-26T06:55:40;99715.94;;;11.95;100.00
12963;BME280;6546;49.882;8.666;2022-12-26T06:58:08;99723.72;;;11.92;100.00
12963;BME280;6546;49.882;8.666;2022-12-26T07:00:35;99727.19;;;11.93;100.00
12963;BME280;6546;49.882;8.666;2022-12-26T07:03:02;99720.28;;;11.87;100.00
12963;BME280;6546;49.882;8.666;2022-12-26T07:05:28;99716.88;;;11.81;100.00
12963;BME280;6546;49.882;8.666;2022-12-26T07:07:55;99726.38;;;11.85;100.00
12963;BME280;6546;49.882;8.666;2022-12-26T07:10:22;99715.97;;;11.82;100.00
12963;BME280;6546;49.882;8.666;2022-12-26T07:12:48;99715.94;;;11.92;100.00
12963;BME280;6546;49.882;8.666;2022-12-26T07:15:16;99715.16;;;11.84;100.00
12963;BME280;6546;49.882;8.666;2022-12-26T07:17:42;99712.53;;;11.78;100.00
12963;BME280;6546;49.882;8.666;2022-12-26T07:20:10;99722.03;;;11.90;100.00
12963;BME280;6546;49.882;8.666;2022-12-26T07:22:37;99724.66;;;11.85;100.00
12963;BME280;6546;49.882;8.666;2022-12-26T07:25:04;99734.97;;;11.91;100.00
12963;BME280;6546;49.882;8.666;2022-12-26T07:27:31;99747.97;;;11.85;100.00
12963;BME280;6546;49.882;8.666;2022-12-26T07:29:57;99750.56;;;11.78;100.00
12963;BME280;6546;49.882;8.666;2022-12-26T07:32:27;99754.00;;;11.81;100.00
12963;BME280;6546;49.882;8.666;2022-12-26T07:34:53;99760.91;;;11.82;100.00
12963;BME280;6546;49.882;8.666;2022-12-26T07:37:20;99764.41;;;11.84;100.00
12963;BME280;6546;49.882;8.666;2022-12-26T07:39:46;99771.31;;;11.85;100.00
12963;BME280;6546;49.882;8.666;2022-12-26T07:42:13;99770.41;;;11.91;100.00
12963;BME280;6546;49.882;8.666;2022-12-26T07:44:39;99769.50;;;11.96;100.00
12963;BME280;6546;49.882;8.666;2022-12-26T07:47:07;99774.72;;;11.90;100.00
12963;BME280;6546;49.882;8.666;2022-12-26T07:49:34;99772.97;;;11.95;100.00
12963;BME280;6546;49.882;8.666;2022-12-26T07:52:01;99774.66;;;11.99;100.00
12963;BME280;6546;49.882;8.666;2022-12-26T07:54:28;99785.03;;;12.03;100.00
12963;BME280;6546;49.882;8.666;2022-12-26T07:56:56;99785.06;;;11.96;100.00
12963;BME280;6546;49.882;8.666;2022-12-26T07:59:23;99790.28;;;11.90;100.00
12963;BME280;6546;49.882;8.666;2022-12-26T08:01:49;99786.81;;;11.91;100.00
12963;BME280;6546;49.882;8.666;2022-12-26T08:04:16;99791.09;;;12.00;100.00
12963;BME280;6546;49.882;8.666;2022-12-26T08:06:45;99794.59;;;11.93;100.00
12963;BME280;6546;49.882;8.666;2022-12-26T08:09:13;99785.91;;;12.00;100.00
12963;BME280;6546;49.882;8.666;2022-12-26T08:11:41;99783.31;;;11.98;100.00
12963;BME280;6546;49.882;8.666;2022-12-26T08:14:09;99782.50;;;11.93;100.00
12963;BME280;6546;49.882;8.666;2022-12-26T08:16:36;99789.41;;;11.91;100.00
12963;BME280;6546;49.882;8.666;2022-12-26T08:19:03;99786.81;;;11.79;100.00
12963;BME280;6546;49.882;8.666;2022-12-26T08:21:29;99778.19;;;11.86;100.00
12963;BME280;6546;49.882;8.666;2022-12-26T08:23:58;99784.25;;;11.87;100.00
12963;BME280;6546;49.882;8.666;2022-12-26T08:26:24;99785.13;;;11.75;100.00
12963;BME280;6546;49.882;8.666;2022-12-26T08:28:51;99788.59;;;11.71;100.00
12963;BME280;6546;49.882;8.666;2022-12-26T08:31:19;99786.88;;;11.73;100.00
12963;BME280;6546;49.882;8.666;2022-12-26T08:33:46;99785.16;;;11.66;100.00
12963;BME280;6546;49.882;8.666;2022-12-26T08:36:13;99792.06;;;11.73;100.00
12963;BME280;6546;49.882;8.666;2022-12-26T08:38:41;99786.88;;;11.76;100.00
12963;BME280;6546;49.882;8.666;2022-12-26T08:41:09;99802.41;;;11.73;100.00
12963;BME280;6546;49.882;8.666;2022-12-26T08:43:36;99826.59;;;11.75;100.00
12963;BME280;6546;49.882;8.666;2022-12-26T08:46:05;99814.50;;;11.77;100.00
12963;BME280;6546;49.882;8.666;2022-12-26T08:48:32;99822.31;;;11.68;100.00
12963;BME280;6546;49.882;8.666;2022-12-26T08:51:01;99813.66;;;11.66;100.00
12963;BME280;6546;49.882;8.666;2022-12-26T08:53:29;99809.31;;;11.71;100.00
12963;BME280;6546;49.882;8.666;2022-12-26T08:55:57;99798.09;;;11.72;100.00
12963;BME280;6546;49.882;8.666;2022-12-26T08:58:25;99802.41;;;11.76;100.00
12963;BME280;6546;49.882;8.666;2022-12-26T09:00:52;99805.88;;;11.77;100.00
12963;BME280;6546;49.882;8.666;2022-12-26T09:03:18;99804.16;;;11.76;100.00
12963;BME280;6546;49.882;8.666;2022-12-26T09:05:45;99803.25;;;11.78;100.00
12963;BME280;6546;49.882;8.666;2022-12-26T09:08:12;99809.28;;;11.79;100.00
12963;BME280;6546;49.882;8.666;2022-12-26T09:10:38;99832.66;;;11.76;100.00
12963;BME280;6546;49.882;8.666;2022-12-26T09:13:05;99835.22;;;11.74;100.00
12963;BME280;6546;49.882;8.666;2022-12-26T09:15:33;99844.72;;;11.75;100.00
12963;BME280;6546;49.882;8.666;2022-12-26T09:17:59;99843.84;;;11.79;100.00
12963;BME280;6546;49.882;8.666;2022-12-26T09:20:26;99841.28;;;11.81;100.00
12963;BME280;6546;49.882;8.666;2022-12-26T09:22:52;99845.59;;;11.80;100.00
12963;BME280;6546;49.882;8.666;2022-12-26T09:25:22;99861.16;;;11.86;100.00
12963;BME280;6546;49.882;8.666;2022-12-26T09:27:49;99864.63;;;11.85;100.00
12963;BME280;6546;49.882;8.666;2022-12-26T09:30:18;99873.22;;;11.87;100.00
12963;BME280;6546;49.882;8.666;2022-12-26T09:32:46;99878.41;;;11.87;100.00
12963;BME280;6546;49.882;8.666;2022-12-26T09:35:12;99881.88;;;11.88;100.00
12963;BME280;6546;49.882;8.666;2022-12-26T09:37:39;99878.41;;;11.90;100.00
12963;BME280;6546;49.882;8.666;2022-12-26T09:40:17;99866.31;;;11.89;100.00
12963;BME280;6546;49.882;8.666;2022-12-26T09:42:53;99862.00;;;11.93;100.00
12963;BME280;6546;49.882;8.666;2022-12-26T09:45:26;99865.44;;;11.92;100.00
12963;BME280;6546;49.882;8.666;2022-12-26T09:48:04;99873.22;;;11.87;100.00
12963;BME280;6546;49.882;8.666;2022-12-26T09:50:33;99860.28;;;11.93;100.00
12963;BME280;6546;49.882;8.666;2022-12-26T09:53:03;99860.28;;;11.89;100.00
12963;BME280;6546;49.882;8.666;2022-12-26T09:55:36;99868.09;;;11.84;100.00
12963;BME280;6546;49.882;8.666;2022-12-26T09:58:12;99875.84;;;11.83;100.00
12963;BME280;6546;49.882;8.666;2022-12-26T10:00:43;99883.59;;;11.87;100.00
12963;BME280;6546;49.882;8.666;2022-12-26T10:03:12;99895.69;;;11.93;100.00
12963;BME280;6546;49.882;8.666;2022-12-26T10:05:45;99896.53;;;11.95;100.00
12963;BME280;6546;49.882;8.666;2022-12-26T10:08:26;99894.81;;;11.98;100.00
12963;BME280;6546;49.882;8.666;2022-12-26T10:10:58;99878.34;;;12.04;100.00
12963;BME280;6546;49.882;8.666;2022-12-26T10:13:31;99878.38;;;12.06;100.00
12963;BME280;6546;49.882;8.666;2022-12-26T10:16:03;99870.59;;;12.04;100.00
12963;BME280;6546;49.882;8.666;2022-12-26T10:18:41;99871.47;;;11.98;100.00
12963;BME280;6546;49.882;8.666;2022-12-26T10:21:27;99853.34;;;11.95;100.00
12963;BME280;6546;49.882;8.666;2022-12-26T10:24:01;99872.34;;;11.96;100.00
12963;BME280;6546;49.882;8.666;2022-12-26T10:26:30;99878.41;;;11.98;100.00
12963;BME280;6546;49.882;8.666;2022-12-26T10:29:02;99887.00;;;12.05;100.00
12963;BME280;6546;49.882;8.666;2022-12-26T10:31:33;99878.41;;;11.93;100.00
12963;BME280;6546;49.882;8.666;2022-12-26T10:34:07;99897.38;;;12.05;100.00
12963;BME280;6546;49.882;8.666;2022-12-26T10:36:39;99891.34;;;11.98;100.00
12963;BME280;6546;49.882;8.666;2022-12-26T10:39:13;99883.56;;;11.99;100.00
12963;BME280;6546;49.882;8.666;2022-12-26T10:41:45;99886.19;;;11.98;100.00
12963;BME280;6546;49.882;8.666;2022-12-26T10:44:14;99890.50;;;11.97;100.00
12963;BME280;6546;49.882;8.666;2022-12-26T10:47:02;99883.56;;;11.96;100.00
12963;BME280;6546;49.882;8.666;2022-12-26T10:49:33;99900.84;;;12.01;100.00
12963;BME280;6546;49.882;8.666;2022-12-26T10:52:00;99893.06;;;11.99;100.00
12963;BME280;6546;49.882;8.666;2022-12-26T10:54:28;99909.53;;;11.87;100.00
12963;BME280;6546;49.882;8.666;2022-12-26T10:56:56;99914.69;;;11.81;100.00
12963;BME280;6546;49.882;8.666;2022-12-26T10:59:34;99895.72;;;11.76;100.00
12963;BME280;6546;49.882;8.666;2022-12-26T11:02:12;99886.22;;;11.73;100.00
12963;BME280;6546;49.882;8.666;2022-12-26T11:04:56;99899.19;;;11.72;100.00
12963;BME280;6546;49.882;8.666;2022-12-26T11:07:24;99897.41;;;11.79;100.00
12963;BME280;6546;49.882;8.666;2022-12-26T11:09:51;99900.88;;;11.67;100.00
12963;BME280;6546;49.882;8.666;2022-12-26T11:12:23;99891.41;;;11.64;100.00
12963;BME280;6546;49.882;8.666;2022-12-26T11:14:56;99895.75;;;11.55;100.00
12963;BME280;6546;49.882;8.666;2022-12-26T11:17:24;99891.44;;;11.49;100.00
12963;BME280;6546;49.882;8.666;2022-12-26T11:20:16;99888.84;;;11.44;100.00
12963;BME280;6546;49.882;8.666;2022-12-26T11:22:46;99889.69;;;11.45;100.00
12963;BME280;6546;49.882;8.666;2022-12-26T11:25:21;99905.25;;;11.53;100.00
12963;BME280;6546;49.882;8.666;2022-12-26T11:27:50;99895.75;;;11.55;100.00
12963;BME280;6546;49.882;8.666;2022-12-26T11:30:26;99898.31;;;11.58;100.00
12963;BME280;6546;49.882;8.666;2022-12-26T11:33:06;99901.78;;;11.64;100.00
12963;BME280;6546;49.882;8.666;2022-12-26T11:35:35;99899.19;;;11.66;100.00
12963;BME280;6546;49.882;8.666;2022-12-26T11:38:04;99894.81;;;11.79;100.00
12963;BME280;6546;49.882;8.666;2022-12-26T11:40:35;99906.94;;;11.83;100.00
12963;BME280;6546;49.882;8.666;2022-12-26T11:43:04;99907.81;;;11.80;100.00
12963;BME280;6546;49.882;8.666;2022-12-26T11:45:36;99901.75;;;11.89;100.00
12963;BME280;6546;49.882;8.666;2022-12-26T11:48:15;99901.75;;;11.87;100.00
12963;BME280;6546;49.882;8.666;2022-12-26T11:50:45;99903.50;;;11.85;100.00
12963;BME280;6546;49.882;8.666;2022-12-26T11:53:16;99892.22;;;11.91;100.00
12963;BME280;6546;49.882;8.666;2022-12-26T11:55:43;99898.31;;;11.85;100.00
12963;BME280;6546;49.882;8.666;2022-12-26T11:58:18;99895.69;;;11.87;100.00
12963;BME280;6546;49.882;8.666;2022-12-26T12:01:14;99903.47;;;11.87;100.00
12963;BME280;6546;49.882;8.666;2022-12-26T12:03:42;99892.22;;;11.91;100.00
12963;BME280;6546;49.882;8.666;2022-12-26T12:06:25;99883.59;;;11.90;100.00
12963;BME280;6546;49.882;8.666;2022-12-26T12:09:04;99886.22;;;11.84;100.00
12963;BME280;6546;49.882;8.666;2022-12-26T12:11:39;99894.81;;;11.91;100.00
12963;BME280;6546;49.882;8.666;2022-12-26T12:14:33;99884.47;;;11.91;100.00
12963;BME280;6546;49.882;8.666;2022-12-26T12:17:13;99879.28;;;11.91;100.00
12963;BME280;6546;49.882;8.666;2022-12-26T12:19:47;99890.47;;;12.01;100.00
12963;BME280;6546;49.882;8.666;2022-12-26T12:22:42;99877.53;;;11.94;100.00
12963;BME280;6546;49.882;8.666;2022-12-26T12:25:22;99881.00;;;12.01;100.00
12963;BME280;6546;49.882;8.666;2022-12-26T12:27:58;99877.53;;;11.94;100.00
12963;BME280;6546;49.882;8.666;2022-12-26T12:30:33;99885.31;;;11.94;100.00
12963;BME280;6546;49.882;8.666;2022-12-26T12:33:17;99876.66;;;11.95;100.00
12963;BME280;6546;49.882;8.666;2022-12-26T12:35:55;99871.50;;;11.89;100.00
12963;BME280;6546;49.882;8.666;2022-12-26T12:38:43;99881.00;;;11.95;100.00
12963;BME280;6546;49.882;8.666;2022-12-26T12:44:05;99882.75;;;11.88;100.00
12963;BME280;6546;49.882;8.666;2022-12-26T12:46:41;99874.09;;;11.89;100.00
12963;BME280;6546;49.882;8.666;2022-12-26T12:49:20;99870.63;;;11.90;100.00
12963;BME280;6546;49.882;8.666;2022-12-26T12:51:54;99864.59;;;11.90;100.00
12963;BME280;6546;49.882;8.666;2022-12-26T12:54:43;99865.44;;;11.90;100.00
12963;BME280;6546;49.882;8.666;2022-12-26T12:57:20;99871.47;;;11.98;100.00
12963;BME280;6546;49.882;8.666;2022-12-26T13:00:00;99876.66;;;11.98;100.00
12963;BME280;6546;49.882;8.666;2022-12-26T13:02:31;99873.19;;;11.96;100.00
12963;BME280;6546;49.882;8.666;2022-12-26T13:05:05;99858.53;;;11.94;100.00
12963;BME280;6546;49.882;8.666;2022-12-26T13:07:39;99868.00;;;12.03;100.00
12963;BME280;6546;49.882;8.666;2022-12-26T13:10:15;99869.72;;;12.10;100.00
12963;BME280;6546;49.882;8.666;2022-12-26T13:12:46;99863.69;;;12.06;100.00
12963;BME280;6546;49.882;8.666;2022-12-26T13:15:23;99865.38;;;12.15;100.00
12963;BME280;6546;49.882;8.666;2022-12-26T13:17:56;99858.44;;;12.15;100.00
12963;BME280;6546;49.882;8.666;2022-12-26T13:20:29;99859.31;;;12.16;100.00
12963;BME280;6546;49.882;8.666;2022-12-26T13:23:08;99860.16;;;12.19;100.00
12963;BME280;6546;49.882;8.666;2022-12-26T13:26:05;99855.88;;;12.11;100.00
12963;BME280;6546;49.882;8.666;2022-12-26T13:28:36;99854.97;;;12.13;100.00
12963;BME280;6546;49.882;8.666;2022-12-26T13:31:05;99862.78;;;12.18;100.00
12963;BME280;6546;49.882;8.666;2022-12-26T13:33:32;99856.69;;;12.20;100.00
12963;BME280;6546;49.882;8.666;2022-12-26T13:36:00;99866.19;;;12.21;100.00
12963;BME280;6546;49.882;8.666;2022-12-26T13:41:30;99847.16;;;12.24;100.00
12963;BME280;6546;49.882;8.666;2022-12-26T13:44:24;99846.31;;;12.22;100.00
12963;BME280;6546;49.882;8.666;2022-12-26T13:46:55;99843.69;;;12.25;100.00
12963;BME280;6546;49.882;8.666;2022-12-26T13:49:31;99841.97;;;12.27;100.00